Terminal Aerodrome Forecast
Issued by NWS Mt. Holly, NJ

Home | Current Version | Previous Version | Text Only | Print | Product List | Glossary On
Versions: 1 2 3 4 5 6 7 8 9 10 11 12 13 14 15 16 17 18 19 20 21 22
000
FTUS41 KPHI 030520
TAFABE
TAF
KABE 030520Z 0306/0406 00000KT P6SM SCT060 BKN200
     FM030900 VRB03KT 6SM BR SCT060 BKN200
     FM031200 04004KT P6SM SCT040 BKN200
     FM031700 18005KT P6SM BKN040=

USA.gov is the U.S. government's official web portal to all federal, state and local government web resources and services.